Time;durP1;ratioP1;P1;durP2;ratioP2;P2;SDS_P1;SDS_P2;PMS_P1;PMS_P2;Temp;Humidity;BMP_temperature;BMP_pressure;BME280_temperature;BME280_humidity;BME280_pressure;Samples;Min_cycle;Max_cycle;Signal;HPM_P1;HPM_P2
2021/05/09 00:02:00;;;;;;;3.45;3.15;;;11.00;66.00;;;;;;4958405;28;20292;-77
2021/05/09 00:04:26;;;;;;;3.75;2.97;;;11.10;65.40;;;;;;4977690;28;20292;-76
2021/05/09 00:06:53;;;;;;;3.30;3.00;;;11.10;64.40;;;;;;4975882;28;20213;-78
2021/05/09 00:09:20;;;;;;;3.53;3.15;;;11.20;64.70;;;;;;4957406;28;20202;-77
2021/05/09 00:11:46;;;;;;;3.95;3.55;;;11.20;64.00;;;;;;4966526;29;20589;-76
2021/05/09 00:14:13;;;;;;;4.32;3.92;;;11.30;64.00;;;;;;4985262;28;20268;-77
2021/05/09 00:16:40;;;;;;;2.92;2.63;;;11.30;63.70;;;;;;4963703;28;20337;-76
2021/05/09 00:19:06;;;;;;;3.92;3.50;;;11.30;63.40;;;;;;4958156;28;20241;-76
2021/05/09 00:21:33;;;;;;;3.80;3.30;;;11.20;63.50;;;;;;4974919;28;20681;-76
2021/05/09 00:24:00;;;;;;;4.40;3.25;;;11.20;63.50;;;;;;4973983;28;20284;-76
2021/05/09 00:26:26;;;;;;;4.30;2.90;;;11.20;63.60;;;;;;4974527;28;20235;-77
2021/05/09 00:28:52;;;;;;;5.15;3.63;;;11.20;63.90;;;;;;4975013;28;20721;-77
2021/05/09 00:31:20;;;;;;;4.25;3.38;;;11.20;63.70;;;;;;4956611;28;20237;-76
2021/05/09 00:33:46;;;;;;;3.50;3.20;;;11.20;64.20;;;;;;4955944;28;20230;-76
2021/05/09 00:36:12;;;;;;;3.50;3.20;;;11.20;63.60;;;;;;4956933;28;20222;-76
2021/05/09 00:38:39;;;;;;;2.70;2.50;;;11.30;63.50;;;;;;4955956;29;20296;-77
2021/05/09 00:41:05;;;;;;;2.75;2.55;;;11.30;63.10;;;;;;4970798;28;20582;-76
2021/05/09 00:43:31;;;;;;;3.60;2.40;;;11.40;62.00;;;;;;4973403;28;20729;-76
2021/05/09 00:45:58;;;;;;;3.10;2.80;;;11.30;62.00;;;;;;4958159;29;20741;-76
2021/05/09 00:48:25;;;;;;;2.60;2.40;;;11.30;62.10;;;;;;4955031;28;20301;-77
2021/05/09 00:50:51;;;;;;;5.82;2.63;;;11.40;61.80;;;;;;4975672;28;20300;-77
2021/05/09 00:53:22;;;;;;;2.60;2.22;;;11.40;61.80;;;;;;4977317;28;20213;-77
2021/05/09 00:55:51;;;;;;;2.15;1.95;;;11.40;61.60;;;;;;4970260;28;20225;-77
2021/05/09 00:58:18;;;;;;;2.92;2.60;;;11.40;61.50;;;;;;4966347;28;20278;-77
2021/05/09 01:00:46;;;;;;;2.05;1.95;;;11.40;61.50;;;;;;4988070;28;20205;-76
2021/05/09 01:03:13;;;;;;;3.40;3.10;;;11.40;61.40;;;;;;4977626;28;20679;-76
2021/05/09 01:05:41;;;;;;;2.97;2.55;;;11.40;61.60;;;;;;4974069;28;20218;-75
2021/05/09 01:08:07;;;;;;;2.50;2.30;;;11.40;61.60;;;;;;4974448;28;20654;-75
2021/05/09 01:10:33;;;;;;;4.45;2.40;;;11.40;61.60;;;;;;4965636;28;20245;-76
2021/05/09 01:13:00;;;;;;;2.40;2.22;;;11.30;61.90;;;;;;4961395;29;20248;-75
2021/05/09 01:15:28;;;;;;;3.92;2.05;;;11.30;61.90;;;;;;4961284;28;20277;-75
2021/05/09 01:17:55;;;;;;;3.72;2.70;;;11.30;62.10;;;;;;4962136;28;20206;-75
2021/05/09 01:20:33;;;;;;;2.03;1.92;;;11.30;61.90;;;;;;4963908;28;20703;-75
2021/05/09 01:23:00;;;;;;;2.42;2.15;;;11.30;61.80;;;;;;4963812;28;20210;-76
2021/05/09 01:25:26;;;;;;;2.45;2.10;;;11.30;62.00;;;;;;4967130;28;20243;-75
2021/05/09 01:27:53;;;;;;;2.58;2.30;;;11.40;62.00;;;;;;4973744;28;20217;-75
2021/05/09 01:30:20;;;;;;;2.42;2.22;;;11.30;61.70;;;;;;4963472;28;20293;-76
2021/05/09 01:32:46;;;;;;;1.98;1.88;;;11.40;62.20;;;;;;4954948;28;20252;-76
2021/05/09 01:35:12;;;;;;;4.00;2.25;;;11.40;62.10;;;;;;4954559;29;20377;-76
2021/05/09 01:37:40;;;;;;;3.90;2.33;;;11.30;62.10;;;;;;4957672;28;20678;-76
2021/05/09 01:40:08;;;;;;;2.15;1.90;;;11.30;62.50;;;;;;4978564;28;20295;-76
2021/05/09 01:42:35;;;;;;;3.28;2.35;;;11.30;62.30;;;;;;4983600;28;20189;-75
2021/05/09 01:45:01;;;;;;;2.72;2.42;;;11.40;62.00;;;;;;4997586;28;20252;-75
2021/05/09 01:47:28;;;;;;;1.95;1.85;;;11.40;61.90;;;;;;4984556;28;20202;-75
2021/05/09 01:49:55;;;;;;;4.40;2.72;;;11.40;62.30;;;;;;4959293;29;20249;-75
2021/05/09 01:52:21;;;;;;;2.60;2.40;;;11.40;63.50;;;;;;4956632;28;20657;-75
2021/05/09 01:54:49;;;;;;;4.90;2.45;;;11.30;63.00;;;;;;4974993;28;20233;-76
2021/05/09 01:57:15;;;;;;;2.85;2.60;;;11.40;63.40;;;;;;4973489;28;20275;-75
2021/05/09 01:59:41;;;;;;;2.83;2.63;;;11.40;63.60;;;;;;4956439;28;20319;-75
2021/05/09 02:02:08;;;;;;;2.30;2.20;;;11.30;63.80;;;;;;4967245;29;20248;-76
2021/05/09 02:04:34;;;;;;;2.72;2.53;;;11.30;63.70;;;;;;4992114;28;20289;-75
2021/05/09 02:07:01;;;;;;;2.80;2.60;;;11.30;64.30;;;;;;4990511;28;20589;-75
2021/05/09 02:09:27;;;;;;;3.00;2.70;;;11.30;64.80;;;;;;4957124;28;20307;-76
2021/05/09 02:11:54;;;;;;;2.58;2.08;;;11.40;65.10;;;;;;4954195;29;20304;-76
2021/05/09 02:14:21;;;;;;;2.50;2.30;;;11.30;64.60;;;;;;4968683;28;20721;-76
2021/05/09 02:16:47;;;;;;;2.55;2.35;;;11.20;64.70;;;;;;4972822;28;20260;-77
2021/05/09 02:19:14;;;;;;;4.13;2.20;;;11.30;64.30;;;;;;4959265;28;20206;-75
2021/05/09 02:21:40;;;;;;;2.42;2.22;;;11.30;64.30;;;;;;4953760;29;20252;-76
2021/05/09 02:24:07;;;;;;;2.45;2.20;;;11.20;64.90;;;;;;4965659;28;20308;-76
2021/05/09 02:26:33;;;;;;;2.80;2.38;;;11.30;64.50;;;;;;4981134;28;20261;-76
2021/05/09 02:29:01;;;;;;;2.40;2.10;;;11.20;64.30;;;;;;4967312;28;20212;-76
2021/05/09 02:31:27;;;;;;;2.78;2.58;;;11.30;64.40;;;;;;4956108;28;20210;-76
2021/05/09 02:33:53;;;;;;;5.60;2.58;;;11.20;64.40;;;;;;4966742;28;20312;-76
2021/05/09 02:36:20;;;;;;;3.03;2.40;;;11.20;64.50;;;;;;4976634;28;20319;-76
2021/05/09 02:38:46;;;;;;;2.60;2.40;;;11.20;64.90;;;;;;4969608;28;20296;-77
2021/05/09 02:41:12;;;;;;;2.53;2.28;;;11.20;65.30;;;;;;4957965;28;20305;-75
2021/05/09 02:43:39;;;;;;;3.38;2.38;;;11.20;65.10;;;;;;4958370;28;20269;-76
2021/05/09 02:46:06;;;;;;;2.55;1.60;;;11.20;65.80;;;;;;4958913;29;20341;-76
2021/05/09 02:48:32;;;;;;;2.50;2.30;;;11.20;65.80;;;;;;4958628;28;20296;-76
2021/05/09 02:50:59;;;;;;;2.70;2.50;;;11.20;65.30;;;;;;4958559;29;20247;-77
2021/05/09 02:53:25;;;;;;;2.13;1.92;;;11.30;65.30;;;;;;4957669;28;20264;-76
2021/05/09 02:55:51;;;;;;;2.25;2.05;;;11.30;65.50;;;;;;4957120;28;20320;-76
2021/05/09 02:58:18;;;;;;;2.65;2.45;;;11.30;65.30;;;;;;4957334;29;20309;-75
2021/05/09 03:00:44;;;;;;;2.50;2.22;;;11.30;65.80;;;;;;4957404;28;20229;-76
2021/05/09 03:03:12;;;;;;;3.50;2.03;;;11.30;65.70;;;;;;4975018;28;20205;-76
2021/05/09 03:05:38;;;;;;;2.75;2.20;;;11.30;65.80;;;;;;4976778;28;20255;-77
2021/05/09 03:08:05;;;;;;;2.70;2.40;;;11.30;66.00;;;;;;4959967;28;20296;-75
2021/05/09 03:10:33;;;;;;;2.33;2.13;;;11.30;65.90;;;;;;4958216;29;20293;-76
2021/05/09 03:13:00;;;;;;;2.67;2.40;;;11.40;65.60;;;;;;4958279;28;20670;-77
2021/05/09 03:15:26;;;;;;;2.40;2.20;;;11.40;65.20;;;;;;4957745;29;20573;-75
2021/05/09 03:17:53;;;;;;;2.38;2.17;;;11.40;65.00;;;;;;4970229;28;20209;-75
2021/05/09 03:20:20;;;;;;;2.50;2.30;;;11.40;64.90;;;;;;4974948;28;20225;-75
2021/05/09 03:22:47;;;;;;;5.10;2.40;;;11.40;64.40;;;;;;4979873;28;20338;-77
2021/05/09 03:25:14;;;;;;;2.45;2.20;;;11.40;64.50;;;;;;4977483;28;20268;-76
2021/05/09 03:27:40;;;;;;;2.83;2.63;;;11.40;64.90;;;;;;4964934;28;20228;-76
2021/05/09 03:30:08;;;;;;;2.95;2.53;;;11.30;65.40;;;;;;4957365;29;20228;-77
2021/05/09 03:32:34;;;;;;;3.85;2.80;;;11.20;66.20;;;;;;4966671;28;20215;-77
2021/05/09 03:35:00;;;;;;;3.55;2.92;;;11.10;68.00;;;;;;4976145;28;20316;-77
2021/05/09 03:37:28;;;;;;;2.95;2.75;;;11.00;68.50;;;;;;4973792;28;20231;-76
2021/05/09 03:39:54;;;;;;;4.60;3.40;;;11.00;68.90;;;;;;4975748;28;20733;-77
2021/05/09 03:42:20;;;;;;;4.88;3.72;;;10.90;69.80;;;;;;4975899;28;20257;-76
2021/05/09 03:44:47;;;;;;;3.85;2.80;;;10.90;69.90;;;;;;4980602;28;20237;-75
2021/05/09 03:47:14;;;;;;;2.97;2.78;;;10.80;69.30;;;;;;4981181;28;20291;-77
2021/05/09 03:49:41;;;;;;;3.50;3.20;;;10.70;69.40;;;;;;4977690;28;20221;-76
2021/05/09 03:52:07;;;;;;;3.70;3.40;;;10.60;69.80;;;;;;4976544;28;20241;-76
2021/05/09 03:54:34;;;;;;;5.53;3.40;;;10.60;70.10;;;;;;4979800;28;20388;-76
2021/05/09 03:57:01;;;;;;;3.78;3.47;;;10.60;70.70;;;;;;4974449;28;20573;-76
2021/05/09 03:59:27;;;;;;;4.40;4.00;;;10.50;71.30;;;;;;4976448;28;20291;-76
2021/05/09 04:01:53;;;;;;;4.20;3.80;;;10.50;72.40;;;;;;4975321;28;20240;-77
2021/05/09 04:04:20;;;;;;;4.35;3.95;;;10.50;72.90;;;;;;4957329;29;20316;-76
2021/05/09 04:06:46;;;;;;;6.60;3.30;;;10.50;72.50;;;;;;4957232;28;20293;-77
2021/05/09 04:09:12;;;;;;;4.70;3.85;;;10.60;72.50;;;;;;4961169;28;20682;-76
2021/05/09 04:11:40;;;;;;;4.45;4.00;;;10.70;72.30;;;;;;4961244;29;20213;-76
2021/05/09 04:14:06;;;;;;;4.47;4.07;;;10.80;71.40;;;;;;4964598;28;20296;-77
2021/05/09 04:16:33;;;;;;;4.10;3.70;;;10.90;71.00;;;;;;4967272;29;20313;-78
2021/05/09 04:18:59;;;;;;;6.55;4.68;;;11.00;70.40;;;;;;4987877;28;20200;-76
2021/05/09 04:21:25;;;;;;;4.90;4.38;;;11.20;70.20;;;;;;4990025;28;20205;-76
2021/05/09 04:23:52;;;;;;;6.78;5.10;;;11.30;68.80;;;;;;4963374;28;20609;-77
2021/05/09 04:26:18;;;;;;;7.80;4.65;;;11.20;68.70;;;;;;4958443;28;20234;-77
2021/05/09 04:28:45;;;;;;;5.78;5.25;;;11.30;68.80;;;;;;4976915;28;20240;-77
2021/05/09 04:31:12;;;;;;;5.28;4.78;;;11.60;69.00;;;;;;4979152;28;20268;-76
2021/05/09 04:33:38;;;;;;;4.65;4.25;;;12.00;67.40;;;;;;4957603;28;20321;-77
2021/05/09 04:36:06;;;;;;;4.80;4.25;;;12.40;62.10;;;;;;4958164;28;20276;-75
2021/05/09 04:38:32;;;;;;;5.78;4.80;;;12.80;58.30;;;;;;4977691;28;20728;-77
2021/05/09 04:40:59;;;;;;;5.32;4.75;;;13.00;55.70;;;;;;4957787;28;20242;-76
2021/05/09 04:43:25;;;;;;;5.10;4.60;;;13.10;54.40;;;;;;4971964;28;20293;-76
2021/05/09 04:45:54;;;;;;;5.60;5.10;;;13.20;53.80;;;;;;4975642;28;20240;-76
2021/05/09 04:48:21;;;;;;;4.82;4.32;;;13.10;53.20;;;;;;4961198;28;20289;-77
2021/05/09 04:50:47;;;;;;;5.80;4.90;;;13.10;53.60;;;;;;4956476;28;20226;-77
2021/05/09 04:53:24;;;;;;;5.10;4.65;;;13.30;53.50;;;;;;4954898;28;20821;-77
2021/05/09 04:55:51;;;;;;;4.90;4.50;;;13.30;53.20;;;;;;4967317;28;20312;-76
2021/05/09 04:58:18;;;;;;;6.18;4.90;;;13.40;52.40;;;;;;4974145;28;20209;-75
2021/05/09 05:00:44;;;;;;;5.57;4.75;;;13.30;54.30;;;;;;4964524;28;20212;-75
2021/05/09 05:03:11;;;;;;;4.80;4.40;;;13.80;52.80;;;;;;4954919;29;20213;-75
2021/05/09 05:05:38;;;;;;;5.88;4.97;;;14.40;51.10;;;;;;4963804;28;20293;-76
2021/05/09 05:08:05;;;;;;;7.20;5.67;;;15.10;48.60;;;;;;4976618;28;20785;-76
2021/05/09 05:10:31;;;;;;;7.10;5.60;;;15.70;46.00;;;;;;4966996;28;20440;-76
2021/05/09 05:12:57;;;;;;;6.87;5.70;;;16.30;45.40;;;;;;4954777;29;20949;-76
2021/05/09 05:15:24;;;;;;;7.03;6.10;;;16.80;43.10;;;;;;4954653;28;20533;-74
2021/05/09 05:17:50;;;;;;;6.47;5.87;;;17.30;40.60;;;;;;4954892;28;20485;-74
2021/05/09 05:20:18;;;;;;;6.77;5.97;;;17.80;39.30;;;;;;4957822;28;20506;-74
2021/05/09 05:22:44;;;;;;;6.23;5.73;;;17.70;38.80;;;;;;4974154;28;20471;-76
2021/05/09 05:25:12;;;;;;;6.53;5.90;;;17.90;39.20;;;;;;4970863;28;20511;-76
2021/05/09 05:27:38;;;;;;;6.60;5.90;;;18.60;37.50;;;;;;4954066;28;20997;-75
2021/05/09 05:30:06;;;;;;;5.87;5.27;;;19.20;35.80;;;;;;4962932;28;21017;-76
2021/05/09 05:32:32;;;;;;;5.90;5.40;;;19.70;34.30;;;;;;4979902;28;20463;-76
2021/05/09 05:34:59;;;;;;;5.60;5.10;;;19.90;33.10;;;;;;4981097;28;20458;-77
2021/05/09 05:37:26;;;;;;;6.03;5.43;;;20.00;33.00;;;;;;4974309;28;20549;-76
2021/05/09 05:39:52;;;;;;;5.50;5.03;;;19.80;32.90;;;;;;4973943;28;20427;-75
2021/05/09 05:42:18;;;;;;;5.33;4.83;;;19.80;33.30;;;;;;4972628;28;20436;-76
2021/05/09 05:44:45;;;;;;;5.53;4.20;;;19.80;33.10;;;;;;4973329;28;20543;-75
2021/05/09 05:47:11;;;;;;;5.20;4.70;;;19.70;32.70;;;;;;4972685;28;20458;-76
2021/05/09 05:49:37;;;;;;;5.30;4.80;;;19.50;33.30;;;;;;4973431;28;20547;-75
2021/05/09 05:52:04;;;;;;;5.23;4.73;;;19.80;32.70;;;;;;4958772;28;20548;-76
2021/05/09 05:54:32;;;;;;;5.53;4.27;;;20.10;32.40;;;;;;4954719;28;20476;-76
2021/05/09 05:56:58;;;;;;;5.33;4.50;;;20.50;31.50;;;;;;4953445;29;20468;-75
2021/05/09 05:59:24;;;;;;;7.73;4.90;;;20.90;30.50;;;;;;4961898;28;20454;-75
2021/05/09 06:01:51;;;;;;;5.40;4.90;;;21.30;29.80;;;;;;4958788;28;20457;-76
2021/05/09 06:04:17;;;;;;;4.70;4.30;;;20.90;30.40;;;;;;4960634;28;20519;-76
2021/05/09 06:06:43;;;;;;;4.73;4.33;;;21.10;30.20;;;;;;4973141;28;20437;-76
2021/05/09 06:09:10;;;;;;;4.70;4.30;;;21.50;29.80;;;;;;4969455;28;20481;-76
2021/05/09 06:11:37;;;;;;;5.10;4.60;;;21.30;29.90;;;;;;4954699;29;20485;-76
2021/05/09 06:14:04;;;;;;;3.93;3.63;;;21.60;30.00;;;;;;4954520;28;20517;-74
2021/05/09 06:16:30;;;;;;;6.20;4.00;;;21.20;29.80;;;;;;4967490;28;20481;-75
2021/05/09 06:18:57;;;;;;;4.13;3.63;;;21.40;29.90;;;;;;4977509;28;20518;-75
2021/05/09 06:21:23;;;;;;;4.53;3.97;;;21.40;29.90;;;;;;4997293;28;20445;-75
2021/05/09 06:23:49;;;;;;;3.87;3.67;;;21.50;30.00;;;;;;4997255;28;20479;-74
2021/05/09 06:26:16;;;;;;;4.57;3.70;;;21.70;30.00;;;;;;4995378;28;20419;-75
2021/05/09 06:28:43;;;;;;;5.83;4.43;;;21.80;29.80;;;;;;4987368;28;20461;-76
2021/05/09 06:31:09;;;;;;;4.30;3.40;;;22.20;29.20;;;;;;4975239;28;20738;-75
2021/05/09 06:33:36;;;;;;;4.20;3.83;;;22.30;28.40;;;;;;4958243;28;20611;-75
2021/05/09 06:36:02;;;;;;;6.30;4.10;;;22.40;29.30;;;;;;4954182;29;20459;-76
2021/05/09 06:38:29;;;;;;;4.47;4.07;;;22.10;29.00;;;;;;4966689;28;20522;-76
2021/05/09 06:40:55;;;;;;;4.03;3.73;;;21.70;29.40;;;;;;4972374;28;20457;-76
2021/05/09 06:43:22;;;;;;;5.00;4.50;;;21.00;29.60;;;;;;4977151;28;20472;-77
2021/05/09 06:45:50;;;;;;;4.23;3.83;;;20.50;31.00;;;;;;4989410;28;20472;-76
2021/05/09 06:48:17;;;;;;;4.27;3.87;;;19.50;33.20;;;;;;4977962;28;20510;-76
2021/05/09 06:50:43;;;;;;;4.33;3.80;;;19.20;35.00;;;;;;4976351;28;20547;-77
2021/05/09 06:53:10;;;;;;;4.00;3.60;;;19.00;35.10;;;;;;4974552;28;21008;-76
2021/05/09 06:55:36;;;;;;;3.10;2.90;;;18.70;35.00;;;;;;4981057;28;20467;-75
2021/05/09 06:58:04;;;;;;;3.40;3.10;;;18.20;36.20;;;;;;4972855;28;20484;-76
2021/05/09 07:00:30;;;;;;;2.80;2.60;;;18.20;36.10;;;;;;4982397;28;20514;-75
2021/05/09 07:02:58;;;;;;;4.37;3.63;;;18.10;37.00;;;;;;4975726;28;20508;-75
2021/05/09 07:05:24;;;;;;;3.70;3.37;;;18.00;36.90;;;;;;4982140;28;20474;-75
2021/05/09 07:07:51;;;;;;;5.70;3.10;;;17.90;36.80;;;;;;4977887;28;20442;-74
2021/05/09 07:10:18;;;;;;;3.50;2.87;;;18.00;36.90;;;;;;4971618;28;20428;-75
2021/05/09 07:12:45;;;;;;;3.20;2.93;;;18.20;37.10;;;;;;4981538;28;20432;-74
2021/05/09 07:15:15;;;;;;;4.23;2.90;;;18.30;37.20;;;;;;4992387;28;20514;-75
2021/05/09 07:17:52;;;;;;;2.70;2.50;;;18.30;37.20;;;;;;4992102;28;20459;-75
2021/05/09 07:20:20;;;;;;;2.70;2.50;;;18.30;37.20;;;;;;4995013;28;20435;-74
2021/05/09 07:22:52;;;;;;;3.13;2.83;;;18.30;37.20;;;;;;4986470;28;20435;-76
2021/05/09 07:25:19;;;;;;;3.23;2.50;;;18.40;36.10;;;;;;4968930;29;20496;-76
2021/05/09 07:27:45;;;;;;;2.80;2.60;;;18.50;34.20;;;;;;4971765;28;20424;-74
2021/05/09 07:30:13;;;;;;;2.23;2.10;;;18.60;34.10;;;;;;4968296;29;20471;-75
2021/05/09 07:32:39;;;;;;;2.90;2.40;;;18.60;34.40;;;;;;4969114;28;20867;-77
2021/05/09 07:35:06;;;;;;;2.50;2.30;;;18.50;34.40;;;;;;4972505;28;20475;-75
2021/05/09 07:37:33;;;;;;;3.90;2.57;;;18.50;34.70;;;;;;4975285;28;20902;-75
2021/05/09 07:40:00;;;;;;;2.73;2.53;;;18.70;34.10;;;;;;4987642;28;20437;-75
2021/05/09 07:42:26;;;;;;;2.67;2.47;;;18.80;33.80;;;;;;4982426;28;20465;-76
2021/05/09 07:44:56;;;;;;;2.43;2.27;;;18.90;33.40;;;;;;4968001;28;20479;-76
2021/05/09 07:47:23;;;;;;;2.80;2.30;;;19.00;33.40;;;;;;4968749;28;20477;-75
2021/05/09 07:49:50;;;;;;;3.10;2.67;;;19.20;33.40;;;;;;4984859;28;20442;-76
2021/05/09 07:52:16;;;;;;;2.23;2.03;;;19.30;32.60;;;;;;4983332;28;20435;-76
2021/05/09 07:54:43;;;;;;;2.50;2.30;;;19.40;32.00;;;;;;4960766;28;20538;-77
2021/05/09 07:57:10;;;;;;;2.90;2.70;;;19.40;32.40;;;;;;4957603;28;20459;-76
2021/05/09 07:59:36;;;;;;;3.90;2.50;;;19.50;31.70;;;;;;4975595;28;20434;-76
2021/05/09 08:02:02;;;;;;;2.73;2.40;;;19.50;31.20;;;;;;4976290;28;20522;-76
2021/05/09 08:04:29;;;;;;;2.30;2.13;;;19.60;31.60;;;;;;4957832;28;20957;-76
2021/05/09 08:06:55;;;;;;;2.33;2.00;;;19.70;31.20;;;;;;4957234;29;20453;-77
2021/05/09 08:09:21;;;;;;;2.40;2.20;;;19.80;31.20;;;;;;4973653;28;20532;-77
2021/05/09 08:11:49;;;;;;;2.93;2.57;;;20.00;30.00;;;;;;4975297;28;20521;-75
2021/05/09 08:14:15;;;;;;;3.40;2.23;;;20.20;30.00;;;;;;4975212;28;20504;-74
2021/05/09 08:16:41;;;;;;;2.87;1.93;;;20.40;29.90;;;;;;4974713;28;20549;-75
2021/05/09 08:19:08;;;;;;;1.80;1.70;;;20.60;30.10;;;;;;4959707;28;20836;-75
2021/05/09 08:21:34;;;;;;;2.00;1.80;;;20.50;29.40;;;;;;4955611;29;20529;-74
2021/05/09 08:24:00;;;;;;;2.37;2.17;;;20.50;30.50;;;;;;4973003;28;20530;-77
2021/05/09 08:26:27;;;;;;;2.67;2.47;;;20.60;30.70;;;;;;4976046;28;20465;-76
2021/05/09 08:28:54;;;;;;;3.13;2.20;;;20.70;30.70;;;;;;4973980;28;20543;-76
2021/05/09 08:31:20;;;;;;;3.47;2.13;;;20.80;30.50;;;;;;4974067;28;20431;-76
2021/05/09 08:33:48;;;;;;;2.27;2.07;;;20.90;30.30;;;;;;4959903;28;20484;-77
2021/05/09 08:36:15;;;;;;;2.23;2.03;;;20.70;30.90;;;;;;4957043;29;20467;-77
2021/05/09 08:38:41;;;;;;;3.37;1.80;;;20.80;31.20;;;;;;4971835;28;20542;-77
2021/05/09 08:41:07;;;;;;;2.40;2.20;;;20.80;30.70;;;;;;4975047;28;20470;-77
2021/05/09 08:43:34;;;;;;;2.00;1.90;;;20.60;31.20;;;;;;4962034;28;20503;-76
2021/05/09 08:46:01;;;;;;;2.37;2.17;;;20.70;31.60;;;;;;4956267;28;20436;-77
2021/05/09 08:48:28;;;;;;;2.33;2.13;;;20.90;30.90;;;;;;4955955;28;20449;-77
2021/05/09 08:50:54;;;;;;;1.87;1.77;;;21.20;30.80;;;;;;4956191;28;20534;-77
2021/05/09 08:53:21;;;;;;;2.10;1.90;;;21.20;30.10;;;;;;4955856;28;20459;-79
2021/05/09 08:55:48;;;;;;;2.20;1.97;;;21.30;30.40;;;;;;4955758;28;20782;-77
2021/05/09 08:58:15;;;;;;;2.53;1.97;;;21.50;30.00;;;;;;4975272;28;20465;-77
2021/05/09 09:00:41;;;;;;;2.20;2.00;;;21.60;30.00;;;;;;4974797;28;20522;-76
2021/05/09 09:03:13;;;;;;;3.43;1.60;;;21.80;30.90;;;;;;4957386;28;20929;-77
2021/05/09 09:05:41;;;;;;;1.90;1.80;;;22.00;30.30;;;;;;4956714;29;20428;-76
2021/05/09 09:08:08;;;;;;;2.10;1.90;;;22.10;30.40;;;;;;4962466;28;20424;-78
2021/05/09 09:10:38;;;;;;;3.87;2.00;;;22.20;30.50;;;;;;4972335;29;20435;-77
2021/05/09 09:13:18;;;;;;;1.90;1.80;;;22.40;30.70;;;;;;4978865;28;20484;-78
2021/05/09 09:15:50;;;;;;;2.73;2.00;;;22.60;30.30;;;;;;4979927;28;20520;-77
2021/05/09 09:18:37;;;;;;;3.10;2.13;;;22.60;30.90;;;;;;4964472;28;20876;-77
2021/05/09 09:21:26;;;;;;;4.13;1.70;;;22.70;30.90;;;;;;4970589;29;20513;-77
2021/05/09 09:23:55;;;;;;;1.93;1.70;;;23.00;30.20;;;;;;4968453;28;20481;-77
2021/05/09 09:26:26;;;;;;;1.63;1.53;;;23.10;30.00;;;;;;4958426;28;20511;-77
2021/05/09 09:28:52;;;;;;;1.80;1.50;;;23.10;30.70;;;;;;4958375;28;20456;-78
2021/05/09 09:31:37;;;;;;;2.00;1.73;;;23.40;29.40;;;;;;4956757;28;20537;-77
2021/05/09 09:34:04;;;;;;;2.30;2.10;;;23.50;29.50;;;;;;4996649;28;20471;-76
2021/05/09 09:36:31;;;;;;;2.00;1.80;;;23.80;29.10;;;;;;4961776;28;20501;-77
2021/05/09 09:38:57;;;;;;;2.73;2.10;;;24.00;29.10;;;;;;4958953;28;20535;-77
2021/05/09 09:41:24;;;;;;;2.70;2.03;;;24.00;28.90;;;;;;4979401;28;20530;-77
2021/05/09 09:44:07;;;;;;;1.73;1.63;;;24.00;29.40;;;;;;4980632;28;20485;-78
2021/05/09 09:46:35;;;;;;;1.70;1.60;;;24.50;28.30;;;;;;4959791;28;20515;-78
2021/05/09 09:49:04;;;;;;;1.90;1.80;;;24.80;28.10;;;;;;4956857;28;20538;-77
2021/05/09 09:51:48;;;;;;;2.37;1.93;;;25.10;27.80;;;;;;4974641;28;20857;-77
2021/05/09 09:54:36;;;;;;;6.13;2.10;;;25.00;28.30;;;;;;4980101;28;20479;-78
2021/05/09 09:57:04;;;;;;;1.97;1.70;;;25.30;28.10;;;;;;4963068;28;20575;-75
2021/05/09 09:59:31;;;;;;;2.07;1.90;;;25.40;27.80;;;;;;4960445;28;20495;-78
2021/05/09 10:01:58;;;;;;;1.70;1.60;;;25.80;27.20;;;;;;4979239;28;20478;-79
2021/05/09 10:04:24;;;;;;;4.07;1.77;;;26.20;25.80;;;;;;4976536;28;20599;-78
2021/05/09 10:06:52;;;;;;;1.83;1.73;;;26.50;25.10;;;;;;4960242;28;20467;-79
2021/05/09 10:09:18;;;;;;;1.87;1.77;;;26.60;25.10;;;;;;4955752;28;20549;-79
2021/05/09 10:11:44;;;;;;;2.50;1.40;;;26.80;25.30;;;;;;4958815;28;20522;-79
2021/05/09 10:14:11;;;;;;;2.10;1.40;;;27.20;23.80;;;;;;4959007;29;20488;-78
2021/05/09 10:16:41;;;;;;;2.30;1.50;;;27.20;22.60;;;;;;4970993;28;20512;-79
2021/05/09 10:19:12;;;;;;;2.20;1.93;;;27.20;22.50;;;;;;4981786;28;20443;-77
2021/05/09 10:21:42;;;;;;;3.00;1.80;;;27.10;22.40;;;;;;4982070;28;20464;-80
2021/05/09 10:24:13;;;;;;;5.10;1.67;;;27.20;21.90;;;;;;4976734;28;20486;-77
2021/05/09 10:26:55;;;;;;;1.87;1.77;;;27.30;22.00;;;;;;4960750;29;20434;-80
2021/05/09 10:29:58;;;;;;;1.80;1.70;;;27.40;21.80;;;;;;4972317;28;20460;-81
2021/05/09 10:32:49;;;;;;;2.10;1.80;;;27.80;21.10;;;;;;4980560;28;20488;-80
2021/05/09 10:35:16;;;;;;;2.00;1.80;;;28.00;20.90;;;;;;4981861;28;20485;-80
2021/05/09 10:38:05;;;;;;;1.70;1.60;;;28.00;20.90;;;;;;4981534;28;21038;-78
2021/05/09 10:40:34;;;;;;;3.30;1.73;;;28.30;18.90;;;;;;4983468;28;20981;-79
2021/05/09 10:43:37;;;;;;;2.37;1.57;;;28.50;17.70;;;;;;4985092;28;20481;-79
2021/05/09 10:46:05;;;;;;;2.90;1.70;;;28.60;18.80;;;;;;4968049;28;20463;-78
2021/05/09 10:48:33;;;;;;;2.37;1.33;;;28.90;17.50;;;;;;4973074;29;20483;-79
2021/05/09 10:51:33;;;;;;;1.57;1.47;;;28.80;17.80;;;;;;4989290;28;20422;-80
2021/05/09 10:54:19;;;;;;;1.70;1.60;;;29.00;17.80;;;;;;4988105;28;20533;-79
2021/05/09 10:56:46;;;;;;;1.60;1.50;;;28.70;17.80;;;;;;5041401;23;20520;-85
2021/05/09 11:01:43;;;;;;;1.30;1.23;;;28.80;17.80;;;;;;4996893;28;20492;-85
2021/05/09 11:04:10;;;;;;;2.03;1.60;;;28.70;17.80;;;;;;4998626;28;20458;-84
2021/05/09 11:06:48;;;;;;;1.77;1.47;;;28.70;17.40;;;;;;4996936;28;20483;-84
2021/05/09 11:09:39;;;;;;;1.73;1.63;;;28.60;16.20;;;;;;4997331;28;20463;-85
2021/05/09 11:12:08;;;;;;;1.60;1.53;;;28.70;16.10;;;;;;4995926;28;20564;-85
2021/05/09 11:14:38;;;;;;;1.50;1.40;;;28.70;15.20;;;;;;4993136;28;20456;-86
2021/05/09 11:17:17;;;;;;;1.57;1.47;;;28.70;16.10;;;;;;4978275;28;20510;-86
2021/05/09 11:19:52;;;;;;;1.83;1.73;;;28.80;16.70;;;;;;4999875;28;20449;-84
2021/05/09 11:22:20;;;;;;;1.40;1.30;;;28.90;16.70;;;;;;4991694;28;20431;-83
2021/05/09 11:24:54;;;;;;;1.60;1.50;;;29.00;16.20;;;;;;4995990;28;20478;-84
2021/05/09 11:27:22;;;;;;;2.17;1.40;;;29.10;15.50;;;;;;4993040;28;20457;-85
2021/05/09 11:29:50;;;;;;;2.93;1.40;;;29.30;15.40;;;;;;4984481;28;20467;-86
2021/05/09 11:32:17;;;;;;;2.47;1.60;;;29.40;14.70;;;;;;4983610;28;20736;-84
2021/05/09 11:34:59;;;;;;;2.13;1.60;;;29.50;15.10;;;;;;4984683;28;20529;-84
2021/05/09 11:37:40;;;;;;;4.10;1.53;;;29.50;15.10;;;;;;4989468;28;20498;-85
2021/05/09 11:40:10;;;;;;;3.80;1.67;;;29.50;14.90;;;;;;4970384;29;20439;-82
2021/05/09 11:42:38;;;;;;;1.90;1.10;;;29.60;14.70;;;;;;4967305;29;20453;-84
2021/05/09 11:45:06;;;;;;;1.40;1.30;;;29.80;14.00;;;;;;4998807;28;20446;-84
2021/05/09 11:47:34;;;;;;;1.07;1.00;;;29.90;13.30;;;;;;4982303;28;20518;-85
2021/05/09 11:50:03;;;;;;;1.83;0.90;;;29.80;14.00;;;;;;4971069;28;20457;-85
2021/05/09 11:52:31;;;;;;;1.53;1.17;;;29.70;14.00;;;;;;4966405;28;20480;-85
2021/05/09 11:54:59;;;;;;;4.07;1.47;;;29.80;13.10;;;;;;4969549;28;20452;-85
2021/05/09 11:57:27;;;;;;;2.77;1.47;;;29.80;13.60;;;;;;4981367;28;20611;-85
2021/05/09 11:59:57;;;;;;;2.03;1.27;;;29.90;12.90;;;;;;4980708;28;20536;-86
2021/05/09 12:02:27;;;;;;;1.13;1.03;;;30.00;12.10;;;;;;4982056;28;20462;-85
2021/05/09 12:04:56;;;;;;;1.63;1.53;;;30.10;11.90;;;;;;4985682;28;20445;-86
2021/05/09 12:07:24;;;;;;;1.23;1.17;;;30.20;11.90;;;;;;4985642;28;20577;-85
2021/05/09 12:09:53;;;;;;;1.17;1.07;;;30.30;11.70;;;;;;4983651;28;20443;-85
2021/05/09 12:12:21;;;;;;;3.80;1.20;;;30.50;12.20;;;;;;4990788;28;20453;-85
2021/05/09 12:14:49;;;;;;;1.57;1.27;;;30.60;12.20;;;;;;4991605;28;20457;-85
2021/05/09 12:17:25;;;;;;;1.30;1.20;;;30.60;12.00;;;;;;4986770;28;20493;-84
2021/05/09 12:19:53;;;;;;;1.50;1.40;;;30.70;12.00;;;;;;4990669;28;20942;-84
2021/05/09 12:22:19;;;;;;;3.77;1.40;;;30.70;11.80;;;;;;4994854;28;20449;-85
2021/05/09 12:24:55;;;;;;;2.60;1.00;;;31.00;10.90;;;;;;4987294;28;20440;-85
2021/05/09 12:27:22;;;;;;;2.23;1.30;;;31.10;10.70;;;;;;4986933;28;20803;-83
2021/05/09 12:29:50;;;;;;;1.20;1.10;;;31.30;11.10;;;;;;4983216;28;20461;-83
2021/05/09 12:32:22;;;;;;;2.50;1.30;;;31.60;10.60;;;;;;4982048;28;20441;-85
2021/05/09 12:35:08;;;;;;;1.43;1.33;;;31.90;10.80;;;;;;4979003;28;20459;-84
2021/05/09 12:37:36;;;;;;;1.63;1.30;;;31.90;10.80;;;;;;4981022;28;20569;-86
2021/05/09 12:40:14;;;;;;;1.40;1.30;;;31.70;10.70;;;;;;4974706;28;20459;-84
2021/05/09 12:42:58;;;;;;;4.13;1.27;;;31.20;10.40;;;;;;4962228;28;20455;-85
2021/05/09 12:45:38;;;;;;;1.13;1.03;;;31.10;10.30;;;;;;4961870;29;20459;-84
2021/05/09 12:48:08;;;;;;;1.63;1.40;;;31.00;10.30;;;;;;4960853;29;20461;-84
2021/05/09 12:50:59;;;;;;;1.53;1.33;;;30.90;10.20;;;;;;4962782;28;20909;-84
2021/05/09 12:53:46;;;;;;;2.53;1.20;;;31.10;10.40;;;;;;4985879;28;20428;-84
2021/05/09 12:56:26;;;;;;;1.53;1.37;;;31.00;10.30;;;;;;4992873;28;20466;-85
2021/05/09 12:59:13;;;;;;;1.93;1.10;;;31.10;10.30;;;;;;4969749;28;20457;-83